Data for 09/20/2017

Time Sea-Level Adjusted Pressure Absolute Pressure Temperature Relative Humidity Dew Point   
(mb) (inHg) (mb) (inHg) (C) (F) (%) (C) (F)
00:05 1011 29.85 840 24.81 3.2 37.8 75 -0.7 30.7
00:10 1011 29.85 840 24.81 3.2 37.8 80 0.2 32.3
00:15 1011 29.85 840 24.81 2.8 37.1 83 0.2 32.4
00:20 1011 29.85 840 24.81 2.5 36.6 84 0.1 32.1
00:25 1011 29.85 840 24.81 2.4 36.4 84 0.1 32.2
00:30 1011 29.85 840 24.81 2.4 36.3 86 0.3 32.6
00:35 1011 29.85 840 24.81 2.2 35.9 86 0.1 32.2
00:40 1011 29.85 840 24.81 2.1 35.8 86 -0 31.9
00:45 1011 29.85 840 24.81 2 35.6 86 -0.1 31.9
00:50 1011 29.85 840 24.81 2 35.6 86 -0.2 31.7
00:55 1011 29.85 840 24.81 2 35.7 84 -0.3 31.4
01:00 1011 29.85 840 24.81 2.2 36 84 -0.3 31.5
01:05 1011 29.85 840 24.81 2.4 36.3 84 -0.1 31.8
01:10 1011 29.85 840 24.81 2.5 36.4 83 -0.2 31.7
01:15 1011 29.85 840 24.81 2.6 36.6 82 -0.2 31.6
01:20 1011 29.85 840 24.81 2.6 36.6 82 -0.2 31.7
01:25 1011 29.85 840 24.81 2.4 36.3 86 0.2 32.4
01:30 1011 29.85 840 24.81 2 35.6 87 0.1 32.1
01:35 1011 29.85 840 24.81 1.9 35.4 88 0.1 32.1
01:40 1011 29.85 840 24.81 1.8 35.3 88 -0 32
01:45 1010 29.83 840 24.81 1.9 35.4 87 -0.1 31.8
01:50 1010 29.83 840 24.81 2 35.7 86 -0 32
01:55 1010 29.83 840 24.81 2.1 35.7 87 0 32.1
02:00 1010 29.83 840 24.81 2 35.6 87 0.1 32.2
02:05 1010 29.83 840 24.81 1.9 35.5 87 0 32.1
02:10 1010 29.83 840 24.81 1.9 35.5 87 -0 31.9
02:15 1010 29.83 840 24.81 2.1 35.8 85 -0.2 31.7
02:20 1010 29.83 840 24.81 2.2 36 84 -0.2 31.6
02:25 1010 29.83 840 24.81 2.4 36.3 82 -0.3 31.5
02:30 1010 29.83 840 24.81 2.4 36.4 83 -0.2 31.7
02:35 1010 29.83 840 24.81 2.5 36.6 82 -0.3 31.5
02:40 1010 29.83 840 24.81 2.5 36.5 82 -0.2 31.6
02:45 1010 29.83 840 24.81 2.6 36.6 80 -0.5 31.1
02:50 1010 29.83 839 24.78 2.6 36.8 79 -0.6 30.8
02:55 1010 29.83 839 24.78 2.9 37.1 80 -0.2 31.6
03:00 1010 29.83 840 24.81 2.9 37.2 79 -0.3 31.5
03:05 1010 29.83 839 24.78 3 37.4 79 -0.4 31.3
03:10 1010 29.83 839 24.78 3 37.3 80 -0.1 31.8
03:15 1010 29.83 840 24.81 2.9 37.3 76 -1 30.3
03:20 1010 29.83 839 24.78 3.1 37.7 76 -0.7 30.8
03:25 1010 29.83 840 24.81 3 37.5 77 -0.6 31
03:30 1010 29.83 840 24.81 3 37.4 76 -0.8 30.5
03:35 1010 29.83 840 24.81 3.4 38.1 68 -1.9 28.5
03:40 1010 29.83 840 24.81 4.4 39.9 57 -3.4 25.9
03:45 1010 29.83 840 24.81 5.2 41.4 53 -3.6 25.5
03:50 1010 29.83 840 24.81 5.4 41.7 53 -3.5 25.7
03:55 1010 29.83 840 24.81 5.4 41.8 52 -3.5 25.6
04:00 1010 29.83 840 24.81 5.4 41.8 53 -3.3 26.1
04:05 1011 29.85 840 24.81 5.3 41.6 54 -3.2 26.2
04:10 1011 29.85 840 24.81 5.3 41.5 55 -3 26.6
04:15 1010 29.83 840 24.81 5.3 41.5 54 -3.2 26.2
04:20 1010 29.83 840 24.81 5.3 41.5 56 -2.9 26.8
04:25 1010 29.83 840 24.81 5.3 41.5 55 -3 26.6
04:30 1010 29.83 840 24.81 5.3 41.5 54 -3.3 26.1
04:35 1010 29.83 839 24.78 5.4 41.7 53 -3.5 25.7
04:40 1010 29.83 839 24.78 5.4 41.8 53 -3.5 25.7
04:45 1010 29.83 839 24.78 5.4 41.7 55 -3 26.6
04:50 1010 29.83 839 24.78 5.2 41.3 56 -2.8 26.9
04:55 1010 29.83 839 24.78 4.9 40.9 56 -3.1 26.4
05:00 1010 29.83 839 24.78 4.9 40.9 55 -3.3 26.1
05:05 1010 29.83 839 24.78 5 40.9 60 -2.3 27.9
05:10 1010 29.83 839 24.78 4.5 40 64 -1.8 28.8
05:15 1010 29.83 839 24.78 4 39.1 65 -2 28.4
05:20 1010 29.83 839 24.78 3.7 38.7 67 -1.8 28.7
05:25 1010 29.83 839 24.78 3.7 38.6 68 -1.7 29
05:30 1010 29.83 839 24.78 3.6 38.4 67 -2.1 28.3
05:35 1010 29.83 839 24.78 3.7 38.7 67 -1.8 28.7
05:40 1010 29.83 839 24.78 3.5 38.4 68 -1.8 28.7
05:45 1010 29.83 839 24.78 3.7 38.7 55 -4.5 23.8
05:50 1010 29.83 839 24.78 4.6 40.2 54 -4 24.8
05:55 1010 29.83 839 24.78 4.8 40.7 54 -3.7 25.3
06:00 1010 29.83 839 24.78 4.8 40.6 55 -3.6 25.5
06:05 1010 29.83 839 24.78 4.6 40.2 55 -3.6 25.5
06:10 1010 29.83 839 24.78 4.3 39.8 58 -3.2 26.3
06:15 1010 29.83 839 24.78 4.3 39.7 57 -3.5 25.6
06:20 1010 29.83 839 24.78 4.3 39.7 57 -3.4 25.9
06:25 1010 29.83 839 24.78 4.3 39.8 57 -3.3 26
06:30 1010 29.83 839 24.78 4 39.3 61 -2.8 26.9
06:35 1010 29.83 839 24.78 3.8 38.8 65 -2.3 27.9
06:40 1010 29.83 839 24.78 3.7 38.7 66 -2 28.4
06:45 1010 29.83 839 24.78 3.6 38.5 69 -1.6 29.1
06:50 1010 29.83 839 24.78 3.4 38.1 68 -1.9 28.5
06:55 1010 29.83 839 24.78 3.3 37.9 70 -1.6 29.1
07:00 1010 29.83 839 24.78 3 37.4 70 -1.9 28.6
07:05 1010 29.83 839 24.78 3 37.3 69 -2.3 27.9
07:10 1009 29.8 839 24.78 3.1 37.6 68 -2.2 28
07:15 1009 29.8 839 24.78 3.2 37.7 68 -2.2 28
07:20 1009 29.8 839 24.78 3.2 37.8 66 -2.5 27.5
07:25 1009 29.8 839 24.78 3.4 38.1 67 -2.1 28.2
07:30 1009 29.8 839 24.78 3.5 38.3 62 -3.2 26.3
07:35 1009 29.8 838 24.75 4.1 39.3 60 -3 26.6
07:40 1009 29.8 838 24.75 4 39.2 60 -3.1 26.4
07:45 1009 29.8 838 24.75 4.2 39.6 59 -3.1 26.4
07:50 1009 29.8 838 24.75 4.2 39.5 60 -2.8 26.9
07:55 1009 29.8 838 24.75 4.1 39.4 56 -4 24.9
08:00 1009 29.8 838 24.75 4.5 40.2 53 -4.2 24.4
08:05 1009 29.8 838 24.75 4.9 40.9 53 -3.9 24.9
08:10 1009 29.8 838 24.75 4.8 40.7 57 -3 26.7
08:15 1009 29.8 838 24.75 4.5 40.2 60 -2.6 27.3
08:20 1009 29.8 838 24.75 4.7 40.4 60 -2.4 27.7
08:25 1009 29.8 838 24.75 5.2 41.3 53 -3.6 25.6
08:30 1009 29.8 838 24.75 5.6 42 52 -3.5 25.7
08:35 1009 29.8 838 24.75 6.1 43 49 -3.7 25.4
08:40 1009 29.8 838 24.75 6.2 43.2 47 -4.2 24.5
08:45 1008 29.77 838 24.75 6.6 43.8 45 -4.4 24
08:50 1008 29.77 838 24.75 6.7 44 45 -4.6 23.8
08:55 1008 29.77 838 24.75 6.8 44.2 43 -5.1 22.9
09:00 1008 29.77 837 24.72 7.2 44.9 42 -5 23
09:05 1008 29.77 837 24.72 7.2 45 43 -4.5 23.9
09:10 1008 29.77 837 24.72 7.4 45.4 42 -4.6 23.7
09:15 1008 29.77 837 24.72 7.6 45.7 43 -4.1 24.7
09:20 1008 29.77 837 24.72 7.8 46 38 -5.7 21.7
09:25 1008 29.77 837 24.72 8.3 46.9 36 -5.9 21.4
09:30 1008 29.77 837 24.72 8.4 47.1 35 -6.3 20.7
09:35 1008 29.77 837 24.72 8.4 47.2 35 -6.1 21.1
09:40 1007 29.74 837 24.72 8.5 47.3 37 -5.4 22.3
09:45 1007 29.74 837 24.72 8.6 47.5 36 -5.5 22.1
09:50 1007 29.74 837 24.72 8.7 47.6 36 -5.6 22
09:55 1007 29.74 837 24.72 8.7 47.7 35 -5.9 21.4
10:00 1007 29.74 837 24.72 8.9 48 33 -6.5 20.4
10:05 1007 29.74 837 24.72 9 48.2 36 -5.2 22.7
10:10 1007 29.74 837 24.72 9 48.2 34 -5.9 21.5
10:15 1007 29.74 837 24.72 9 48.3 34 -6 21.2
10:20 1007 29.74 837 24.72 9 48.2 34 -6 21.2
10:25 1008 29.77 837 24.72 9 48.2 34 -6 21.3
10:30 1007 29.74 837 24.72 9.1 48.4 33 -6.4 20.4
10:35 1008 29.77 837 24.72 9.1 48.4 35 -5.5 22.1
10:40 1008 29.77 837 24.72 9.2 48.5 35 -5.5 22.1
10:45 1008 29.77 837 24.72 9 48.2 36 -5.3 22.4
10:50 1008 29.77 837 24.72 8.9 47.9 38 -4.5 23.9
10:55 1007 29.74 837 24.72 8.8 47.8 40 -4 24.8
11:00 1007 29.74 837 24.72 8.7 47.6 40 -4.2 24.4
11:05 1007 29.74 837 24.72 8.7 47.6 41 -3.9 25
11:10 1007 29.74 836 24.69 8.7 47.6 41 -3.7 25.4
11:15 1007 29.74 836 24.69 8.8 47.8 41 -3.7 25.3
11:20 1007 29.74 836 24.69 9.1 48.3 41 -3.4 25.8
11:25 1007 29.74 836 24.69 9.3 48.7 41 -3.2 26.2
11:30 1007 29.74 836 24.69 9.6 49.2 40 -3.2 26.3
11:35 1007 29.74 836 24.69 9.9 49.8 40 -2.9 26.8
11:40 1007 29.74 836 24.69 10 49.9 39 -3.4 25.9
11:45 1007 29.74 836 24.69 9.9 49.9 40 -3 26.6
11:50 1007 29.74 836 24.69 10.1 50.1 39 -3.3 26.1
11:55 1007 29.74 836 24.69 10.7 51.2 37 -3.2 26.2
12:00 1007 29.74 836 24.69 10.8 51.4 37 -3.3 26.1
12:05 1007 29.74 836 24.69 10.7 51.2 36 -3.8 25.2
12:10 1007 29.74 836 24.69 10.8 51.5 37 -3.2 26.2
12:15 1007 29.74 836 24.69 11 51.8 35 -3.7 25.4
12:20 1007 29.74 836 24.69 11.2 52.2 37 -2.9 26.8
12:25 1007 29.74 836 24.69 11.4 52.4 36 -3.1 26.5
12:30 1007 29.74 836 24.69 11.7 53 34 -3.8 25.2
12:35 1006 29.71 836 24.69 11.6 53 34 -3.7 25.4
12:40 1006 29.71 836 24.69 11.8 53.2 35 -3.2 26.3
12:45 1006 29.71 836 24.69 11.8 53.3 34 -3.6 25.5
12:50 1006 29.71 836 24.69 12.1 53.8 33 -3.6 25.5
12:55 1006 29.71 835 24.66 12 53.5 33 -3.7 25.4
13:00 1006 29.71 835 24.66 12 53.6 33 -3.8 25.2
13:05 1006 29.71 835 24.66 12.1 53.9 34 -3.2 26.3
13:10 1006 29.71 835 24.66 12.7 54.8 32 -3.5 25.8
13:15 1006 29.71 835 24.66 12.5 54.5 32 -3.6 25.5
13:20 1006 29.71 836 24.69 12.6 54.7 32 -3.7 25.3
13:25 1006 29.71 835 24.66 12.6 54.8 32 -3.6 25.4
13:30 1006 29.71 835 24.66 12.5 54.5 33 -3.2 26.3
13:35 1006 29.71 835 24.66 12.5 54.5 31 -4 24.9
13:40 1006 29.71 835 24.66 12.3 54.1 33 -3.5 25.8
13:45 1006 29.71 835 24.66 11.9 53.5 33 -3.7 25.3
13:50 1006 29.71 835 24.66 11.9 53.3 33 -3.8 25.2
13:55 1006 29.71 835 24.66 11.8 53.3 33 -3.7 25.3
14:00 1006 29.71 835 24.66 11.9 53.4 32 -4.3 24.3
14:05 1006 29.71 835 24.66 12 53.6 32 -4 24.8
14:10 1006 29.71 835 24.66 11.9 53.5 32 -4.1 24.5
14:15 1006 29.71 835 24.66 12.1 53.7 32 -4.2 24.4
14:20 1006 29.71 835 24.66 12.3 54.1 31 -4.4 24.1
14:25 1006 29.71 835 24.66 12.4 54.4 30 -4.4 24.1
14:30 1006 29.71 835 24.66 12.6 54.6 31 -4.1 24.5
14:35 1006 29.71 835 24.66 12.6 54.7 30 -4.5 23.8
14:40 1006 29.71 835 24.66 12.7 54.8 30 -4.5 24
14:45 1006 29.71 836 24.69 12.6 54.7 31 -4.2 24.4
14:50 1006 29.71 836 24.69 12.5 54.5 32 -3.6 25.4
14:55 1006 29.71 836 24.69 12.4 54.4 34 -3.1 26.4
15:00 1006 29.71 836 24.69 12.4 54.2 33 -3.2 26.2
15:05 1006 29.71 836 24.69 12.4 54.3 33 -3.3 26
15:10 1006 29.71 836 24.69 12.5 54.5 33 -3.1 26.4
15:15 1006 29.71 835 24.66 12.6 54.8 33 -3.2 26.2
15:20 1006 29.71 835 24.66 13.2 55.8 32 -2.9 26.7
15:25 1006 29.71 835 24.66 13.5 56.3 32 -2.9 26.7
15:30 1006 29.71 835 24.66 13.6 56.4 30 -3.7 25.3
15:35 1006 29.71 835 24.66 13.3 55.9 30 -4 24.8
15:40 1006 29.71 835 24.66 13.3 55.9 30 -3.8 25.1
15:45 1006 29.71 835 24.66 13 55.4 32 -3.4 25.9
15:50 1006 29.71 835 24.66 12.9 55.3 33 -2.8 27
15:55 1006 29.71 835 24.66 12.7 54.9 33 -3.2 26.2
16:00 1006 29.71 835 24.66 12.8 55.1 32 -3.3 26.1
16:05 1006 29.71 835 24.66 12.8 55.1 33 -3.1 26.4
16:10 1006 29.71 835 24.66 12.6 54.8 34 -2.8 27
16:15 1006 29.71 835 24.66 12.5 54.4 34 -2.8 27
16:20 1006 29.71 835 24.66 12.3 54.1 35 -2.6 27.3
16:25 1006 29.71 836 24.69 12.2 53.9 38 -1.6 29.1
16:30 1006 29.71 836 24.69 11.6 52.9 43 -0.6 30.9
16:35 1006 29.71 836 24.69 10.9 51.7 48 0.4 32.8
16:40 1007 29.74 836 24.69 10.2 50.4 58 2.4 36.3
16:45 1007 29.74 836 24.69 9.4 48.9 64 2.9 37.2
16:50 1007 29.74 836 24.69 8.9 48 66 2.9 37.3
16:55 1007 29.74 836 24.69 8.6 47.5 67 2.9 37.1
17:00 1007 29.74 836 24.69 8.6 47.5 66 2.7 36.9
17:05 1007 29.74 836 24.69 8.6 47.5 67 2.9 37.2
17:10 1007 29.74 836 24.69 8.7 47.7 66 2.7 36.9
17:15 1007 29.74 837 24.72 8.7 47.7 68 3.1 37.6
17:20 1008 29.77 837 24.72 8.2 46.7 71 3.4 38
17:25 1008 29.77 837 24.72 7.8 46 71 2.7 36.9
17:30 1008 29.77 837 24.72 7.7 45.9 72 3 37.4
17:35 1008 29.77 837 24.72 7.6 45.7 70 2.5 36.6
17:40 1008 29.77 837 24.72 7.9 46.1 69 2.6 36.7
17:45 1008 29.77 837 24.72 7.9 46.3 70 2.8 37
17:50 1008 29.77 837 24.72 8 46.5 71 3.2 37.8
17:55 1008 29.77 837 24.72 8 46.5 71 3.1 37.5
18:00 1008 29.77 837 24.72 8 46.5 70 2.8 37.1
18:05 1008 29.77 837 24.72 8.1 46.6 71 3.2 37.8
18:10 1008 29.77 837 24.72 8 46.5 73 3.6 38.5
18:15 1008 29.77 837 24.72 7.9 46.2 75 3.7 38.6
18:20 1008 29.77 838 24.75 7.8 46.1 76 3.9 39
18:25 1008 29.77 838 24.75 7.9 46.2 75 3.7 38.6
18:30 1009 29.8 838 24.75 7.9 46.2 77 4.1 39.4
18:35 1009 29.8 838 24.75 7.8 46.1 78 4.2 39.6
18:40 1009 29.8 838 24.75 7.8 46 78 4.2 39.5
18:45 1009 29.8 838 24.75 7.7 45.8 79 4.3 39.7
18:50 1009 29.8 838 24.75 7.6 45.7 80 4.3 39.8
18:55 1009 29.8 838 24.75 7.5 45.6 79 4.1 39.3
19:00 1009 29.8 838 24.75 7.5 45.4 78 3.9 39
19:05 1009 29.8 838 24.75 7.3 45.2 79 4 39.2
19:10 1009 29.8 838 24.75 7.2 45 79 3.9 38.9
19:15 1009 29.8 838 24.75 7.2 44.9 81 4.2 39.5
19:20 1009 29.8 838 24.75 7.1 44.8 81 4.1 39.4
19:25 1009 29.8 839 24.78 7 44.7 82 4.2 39.5
19:30 1009 29.8 839 24.78 7 44.5 82 4.2 39.5
19:35 1009 29.8 839 24.78 6.9 44.5 80 3.7 38.7
19:40 1009 29.8 839 24.78 6.9 44.4 78 3.4 38.2
19:45 1009 29.8 838 24.75 6.8 44.2 78 3.3 37.9
19:50 1009 29.8 838 24.75 6.7 44.1 80 3.5 38.3
19:55 1009 29.8 838 24.75 6.5 43.7 80 3.3 37.9
20:00 1009 29.8 838 24.75 6.4 43.6 79 3.1 37.5
20:05 1009 29.8 838 24.75 6.4 43.5 76 2.6 36.6
20:10 1009 29.8 838 24.75 6.4 43.6 74 2.2 36
20:15 1009 29.8 839 24.78 6.5 43.7 74 2.2 36
20:20 1009 29.8 839 24.78 6.4 43.6 75 2.4 36.2
20:25 1009 29.8 839 24.78 6.4 43.5 77 2.7 36.9
20:30 1009 29.8 838 24.75 6.5 43.7 75 2.4 36.4
20:35 1009 29.8 838 24.75 6.6 43.8 76 2.7 36.9
20:40 1009 29.8 839 24.78 6.5 43.7 77 2.9 37.2
20:45 1009 29.8 839 24.78 6.5 43.7 77 2.7 36.8
20:50 1009 29.8 839 24.78 6.5 43.8 75 2.4 36.2
20:55 1009 29.8 839 24.78 6.7 44 75 2.5 36.5
21:00 1009 29.8 839 24.78 6.7 44 75 2.6 36.7
21:05 1009 29.8 839 24.78 6.7 44 76 2.8 37.1
21:10 1010 29.83 839 24.78 6.5 43.8 76 2.7 36.8
21:15 1010 29.83 839 24.78 6.7 44 73 2.1 35.8
21:20 1010 29.83 839 24.78 6.8 44.2 72 2.1 35.8
21:25 1010 29.83 839 24.78 6.8 44.2 73 2.2 35.9
21:30 1010 29.83 839 24.78 6.7 44.1 74 2.5 36.5
21:35 1010 29.83 839 24.78 6.6 43.8 76 2.6 36.6
21:40 1010 29.83 839 24.78 6.4 43.5 76 2.5 36.5
21:45 1010 29.83 839 24.78 6.3 43.3 77 2.6 36.7
21:50 1010 29.83 839 24.78 6.2 43.1 77 2.5 36.5
21:55 1010 29.83 839 24.78 6.1 43 77 2.4 36.3
22:00 1010 29.83 839 24.78 6.1 43 77 2.4 36.3
22:05 1010 29.83 839 24.78 6 42.9 78 2.6 36.6
22:10 1010 29.83 839 24.78 6 42.8 78 2.4 36.4
22:15 1010 29.83 839 24.78 5.9 42.5 78 2.4 36.3
22:20 1010 29.83 839 24.78 5.7 42.3 77 2.1 35.8
22:25 1010 29.83 839 24.78 5.6 42 77 1.9 35.5
22:30 1010 29.83 839 24.78 5.5 41.9 78 1.9 35.4
22:35 1010 29.83 839 24.78 5.5 41.8 78 2 35.5
22:40 1010 29.83 839 24.78 5.4 41.8 78 1.9 35.3
22:45 1010 29.83 839 24.78 5.4 41.8 77 1.8 35.2
22:50 1010 29.83 839 24.78 5.5 41.9 75 1.4 34.5
22:55 1010 29.83 839 24.78 5.6 42 73 1.1 34
23:00 1010 29.83 839 24.78 5.7 42.2 71 0.9 33.6
23:05 1010 29.83 839 24.78 5.8 42.4 72 1.2 34.2
23:10 1010 29.83 839 24.78 5.8 42.5 71 1 33.7
23:15 1010 29.83 839 24.78 5.9 42.5 72 1.1 34
23:20 1010 29.83 839 24.78 5.8 42.5 74 1.6 34.9
23:25 1010 29.83 839 24.78 5.6 42.1 75 1.5 34.6
23:30 1010 29.83 839 24.78 5.5 42 76 1.6 34.9
23:35 1010 29.83 839 24.78 5.5 41.9 77 1.8 35.2
23:40 1010 29.83 839 24.78 5.6 42 76 1.6 34.9
23:45 1010 29.83 839 24.78 5.6 42 78 2 35.7
23:50 1010 29.83 839 24.78 5.5 41.8 79 2.2 35.9
23:55 1010 29.83 839 24.78 5.5 41.9 80 2.3 36.1
24:00 1010 29.83 839 24.78 5.5 41.9 80 2.3 36.2